Main page
METAR-TAF:

METAR-TAF

Airports :

Shanghai-Pudong, China

Shanghai Pudong International Airport

latitude: 31-07N, longitude: 121-46E, elevation: 4 m

Current weather observation

The report was made 32 minutes ago, at 16:00 UTC
Wind 4 kt from the South/Southwest
Temperature 10°C
Humidity 53%
Pressure 1028 hPa
Visibility 10 km or more
no clouds below 1500 m and no cumulonimbus

METAR: ZSPD 241600Z 20002MPS CAVOK 10/01 Q1028 NOSIG

Time: 00:32 (16:32 UTC)

Forecast

The report was made 7 hours and 6 minutes ago, at 09:26 UTC
Forecast valid from 24 at 12 UTC to 25 at 12 UTC
Wind 6 kt from the West/Southwest
Visibility: 5000 m
Scattered clouds at a height of 2000 ft
mist

TAF: ZSPD 240926Z 2412/2512 24003MPS 5000 BR SCT020 TX15/2506Z TN06/2421Z

Weather observations and forecasts of more than 4000 airports (METAR and TAF reports).

The available stations are represented by yellow and red dots on the map.

Hover mouse over dot to see the name of the station.

Then click to see weather observations and forecasts.

To change the map : click on the green buttons with a black cross to zoom in, on the green button with a dash to zoom out, or on the green arrows for adjacent maps.


METAR-TAF: